createdAt,value
2022-12-19T00:01:32.067Z,100540.50
2022-12-19T00:04:00.457Z,100543.75
2022-12-19T00:06:28.203Z,100534.16
2022-12-19T00:08:55.706Z,100535.00
2022-12-19T00:11:23.894Z,100528.94
2022-12-19T00:13:50.645Z,100511.78
2022-12-19T00:16:19.929Z,100505.78
2022-12-19T00:18:47.769Z,100510.06
2022-12-19T00:21:20.391Z,100497.19
2022-12-19T00:23:47.424Z,100501.47
2022-12-19T00:26:17.253Z,100502.31
2022-12-19T00:28:49.509Z,100505.66
2022-12-19T00:31:18.139Z,100498.66
2022-12-19T00:33:46.854Z,100481.34
2022-12-19T00:36:17.027Z,100488.28
2022-12-19T00:38:51.128Z,100492.50
2022-12-19T00:41:29.616Z,100488.13
2022-12-19T00:43:58.246Z,100485.59
2022-12-19T00:46:24.997Z,100481.22
2022-12-19T00:48:51.497Z,100480.31
2022-12-19T00:51:20.562Z,100470.94
2022-12-19T00:53:48.827Z,100476.88
2022-12-19T00:56:20.784Z,100472.66
2022-12-19T00:58:47.664Z,100482.94
2022-12-19T01:01:17.756Z,100461.38
2022-12-19T01:04:04.271Z,100481.09
2022-12-19T01:06:31.622Z,100471.50
2022-12-19T01:08:58.213Z,100457.69
2022-12-19T01:11:43.757Z,100448.91
2022-12-19T01:14:19.076Z,100445.50
2022-12-19T01:16:47.359Z,100447.19
2022-12-19T01:19:13.721Z,100448.81
2022-12-19T01:21:40.020Z,100443.69
2022-12-19T01:24:06.964Z,100450.56
2022-12-19T01:26:33.580Z,100433.25
2022-12-19T01:28:59.917Z,100435.97
2022-12-19T01:31:27.257Z,100449.78
2022-12-19T01:33:55.016Z,100447.19
2022-12-19T01:36:22.749Z,100447.91
2022-12-19T01:38:49.057Z,100440.13
2022-12-19T01:41:15.443Z,100446.88
2022-12-19T01:43:58.636Z,100463.34
2022-12-19T01:46:30.821Z,100453.84
2022-12-19T01:48:57.477Z,100452.09
2022-12-19T01:51:28.287Z,100475.31
2022-12-19T01:53:59.889Z,100454.47
2022-12-19T01:56:31.573Z,100437.31
2022-12-19T01:59:05.775Z,100443.31
2022-12-19T02:01:43.405Z,100438.13
2022-12-19T02:04:21.600Z,100430.38
2022-12-19T02:06:48.611Z,100427.66
2022-12-19T02:09:15.775Z,100420.75
2022-12-19T02:11:42.290Z,100424.97
2022-12-19T02:14:08.763Z,100410.28
2022-12-19T02:16:47.205Z,100420.47
2022-12-19T02:20:01.298Z,100415.53
2022-12-19T02:22:49.882Z,100406.69
2022-12-19T02:25:38.218Z,100417.88
2022-12-19T02:28:21.298Z,100418.03
2022-12-19T02:31:19.433Z,100430.88
2022-12-19T02:34:07.513Z,100419.50
2022-12-19T02:36:46.829Z,100392.00
2022-12-19T02:39:22.275Z,100390.31
2022-12-19T02:41:57.321Z,100389.34
2022-12-19T02:44:29.990Z,100373.09
2022-12-19T02:46:58.596Z,100376.41
2022-12-19T02:49:30.766Z,100379.91
2022-12-19T02:52:09.022Z,100385.91
2022-12-19T02:54:39.589Z,100390.19
2022-12-19T02:57:34.857Z,100415.06
2022-12-19T03:00:06.363Z,100415.91
2022-12-19T03:03:00.830Z,100410.81
2022-12-19T03:05:56.888Z,100406.34
2022-12-19T03:08:42.769Z,100410.63
2022-12-19T03:11:13.364Z,100401.31
2022-12-19T03:13:54.513Z,100391.75
2022-12-19T03:16:21.088Z,100384.06
2022-12-19T03:18:47.576Z,100395.28
2022-12-19T03:21:20.895Z,100397.84
2022-12-19T03:23:50.162Z,100395.94
2022-12-19T03:26:19.898Z,100380.41
2022-12-19T03:29:05.147Z,100384.56
2022-12-19T03:31:33.771Z,100369.97
2022-12-19T03:34:06.749Z,100358.63
2022-12-19T03:36:40.359Z,100374.03
2022-12-19T03:39:10.120Z,100369.72
2022-12-19T03:41:57.680Z,100365.50
2022-12-19T03:44:27.551Z,100350.81
2022-12-19T03:47:11.431Z,100361.88
2022-12-19T03:49:37.938Z,100351.59
2022-12-19T03:52:26.015Z,100368.78
2022-12-19T03:55:05.738Z,100354.09
2022-12-19T03:57:41.812Z,100339.28
2022-12-19T04:00:12.740Z,100350.41
2022-12-19T04:02:43.028Z,100329.75
2022-12-19T04:05:14.500Z,100333.94
2022-12-19T04:07:41.865Z,100321.03
2022-12-19T04:10:14.805Z,100318.38
2022-12-19T04:12:47.238Z,100315.78
2022-12-19T04:15:14.997Z,100326.25
2022-12-19T04:17:48.373Z,100320.19
2022-12-19T04:20:17.739Z,100326.94
2022-12-19T04:22:52.444Z,100315.81
2022-12-19T04:25:29.357Z,100302.56
2022-12-19T04:28:02.410Z,100301.75
2022-12-19T04:30:28.928Z,100307.94
2022-12-19T04:32:56.624Z,100305.28
2022-12-19T04:35:22.955Z,100302.63
2022-12-19T04:37:49.476Z,100305.16
2022-12-19T04:40:15.840Z,100304.38
2022-12-19T04:42:42.147Z,100310.13
2022-12-19T04:45:09.304Z,100304.06
2022-12-19T04:47:35.873Z,100305.53
2022-12-19T04:50:02.141Z,100302.19
2022-12-19T04:52:28.443Z,100307.44
2022-12-19T04:54:54.819Z,100299.63
2022-12-19T04:57:21.296Z,100293.63
2022-12-19T04:59:47.800Z,100272.91
2022-12-19T05:02:14.179Z,100285.81
2022-12-19T05:04:40.700Z,100281.34
2022-12-19T05:07:06.993Z,100278.75
2022-12-19T05:09:33.955Z,100284.47
2022-12-19T05:12:03.301Z,100270.75
2022-12-19T05:14:29.667Z,100277.63
2022-12-19T05:17:01.420Z,100268.22
2022-12-19T05:19:28.497Z,100269.91
2022-12-19T05:21:54.874Z,100288.00
2022-12-19T05:24:21.316Z,100285.47
2022-12-19T05:26:49.008Z,100281.97
2022-12-19T05:29:16.092Z,100273.47
2022-12-19T05:31:42.979Z,100284.53
2022-12-19T05:34:09.296Z,100278.63
2022-12-19T05:36:35.607Z,100282.72
2022-12-19T05:39:01.898Z,100291.44
2022-12-19T05:41:28.363Z,100268.09
2022-12-19T05:43:56.185Z,100287.19
2022-12-19T05:46:23.478Z,100296.50
2022-12-19T05:48:50.071Z,100295.78
2022-12-19T05:51:16.898Z,100299.19
2022-12-19T05:53:43.321Z,100302.91
2022-12-19T05:56:13.326Z,100302.72
2022-12-19T05:58:41.375Z,100305.38
2022-12-19T06:01:12.552Z,100306.09
2022-12-19T06:03:38.973Z,100291.31
2022-12-19T06:06:07.946Z,100304.31
2022-12-19T06:08:34.351Z,100277.56
2022-12-19T06:11:02.882Z,100289.66
2022-12-19T06:13:29.801Z,100302.38
2022-12-19T06:16:01.281Z,100288.59
2022-12-19T06:18:28.174Z,100291.22
2022-12-19T06:21:03.337Z,100295.44
2022-12-19T06:23:31.426Z,100299.00
2022-12-19T06:25:59.066Z,100294.69
2022-12-19T06:28:26.992Z,100296.38
2022-12-19T06:30:56.233Z,100291.91
2022-12-19T06:33:23.025Z,100293.81
2022-12-19T06:35:57.398Z,100281.53
2022-12-19T06:38:23.688Z,100290.03
2022-12-19T06:41:16.337Z,100286.09
2022-12-19T06:43:42.858Z,100266.03
2022-12-19T06:46:09.627Z,100270.47
2022-12-19T06:48:36.501Z,100277.22
2022-12-19T06:51:02.812Z,100278.81
2022-12-19T06:53:29.436Z,100280.50
2022-12-19T06:55:57.848Z,100278.72
2022-12-19T06:58:24.632Z,100283.84
2022-12-19T07:00:51.878Z,100284.00
2022-12-19T07:03:22.932Z,100291.72
2022-12-19T07:05:49.903Z,100287.53
2022-12-19T07:08:16.331Z,100291.91
2022-12-19T07:10:42.762Z,100295.09
2022-12-19T07:13:09.122Z,100277.72
2022-12-19T07:15:36.294Z,100273.47
2022-12-19T07:18:05.588Z,100274.81
2022-12-19T07:20:33.895Z,100273.91
2022-12-19T07:23:01.623Z,100288.75
2022-12-19T07:25:27.978Z,100285.19
2022-12-19T07:27:54.335Z,100291.28
2022-12-19T07:30:20.704Z,100290.50
2022-12-19T07:32:47.010Z,100281.19
2022-12-19T07:35:14.134Z,100284.63
2022-12-19T07:37:40.571Z,100287.03
2022-12-19T07:40:07.340Z,100298.22
2022-12-19T07:42:34.116Z,100288.81
2022-12-19T07:45:01.325Z,100286.00
2022-12-19T07:47:27.770Z,100278.41
2022-12-19T07:49:54.100Z,100290.38
2022-12-19T07:52:20.409Z,100292.16
2022-12-19T07:54:46.905Z,100283.41
2022-12-19T07:57:13.224Z,100287.41
2022-12-19T07:59:39.673Z,100291.84
2022-12-19T08:02:06.536Z,100298.03
2022-12-19T08:04:34.253Z,100300.72
2022-12-19T08:07:02.202Z,100304.16
2022-12-19T08:09:28.695Z,100303.84
2022-12-19T08:11:55.174Z,100288.44
2022-12-19T08:14:21.643Z,100288.41
2022-12-19T08:17:18.777Z,100286.66
2022-12-19T08:19:34.214Z,100283.84
2022-12-19T08:22:00.549Z,100276.25
2022-12-19T08:24:26.857Z,100288.19
2022-12-19T08:26:53.179Z,100296.09
2022-12-19T08:29:19.538Z,100302.88
2022-12-19T08:31:45.894Z,100306.50
2022-12-19T08:34:12.215Z,100310.69
2022-12-19T08:36:39.364Z,100306.53
2022-12-19T08:39:06.204Z,100295.72
2022-12-19T08:41:32.644Z,100308.09
2022-12-19T08:43:59.017Z,100310.94
2022-12-19T08:46:27.111Z,100310.63
2022-12-19T08:48:53.524Z,100314.88
2022-12-19T08:51:20.402Z,100302.00
2022-12-19T08:53:47.348Z,100316.72
2022-12-19T08:56:17.533Z,100313.16
2022-12-19T08:58:44.122Z,100306.13
2022-12-19T09:01:16.283Z,100306.06
2022-12-19T09:04:09.963Z,100297.38
2022-12-19T09:06:29.245Z,100301.78
2022-12-19T09:09:00.198Z,100298.19
2022-12-19T09:11:26.793Z,100306.94
2022-12-19T09:13:57.003Z,100305.91
2022-12-19T09:16:25.242Z,100303.25
2022-12-19T09:18:53.653Z,100307.69
2022-12-19T09:21:22.302Z,100290.63
2022-12-19T09:24:03.479Z,100284.47
2022-12-19T09:26:35.396Z,100276.34
2022-12-19T09:29:02.220Z,100284.13
2022-12-19T09:31:29.358Z,100275.66
2022-12-19T09:33:55.894Z,100266.16
2022-12-19T09:36:31.476Z,100212.31
2022-12-19T09:38:58.785Z,100277.84
2022-12-19T09:41:43.785Z,100279.56
2022-12-19T09:44:35.163Z,100276.97
2022-12-19T09:47:11.962Z,100278.66
2022-12-19T09:49:42.611Z,100271.88
2022-12-19T09:52:17.196Z,100284.13
2022-12-19T09:54:55.934Z,100269.28
2022-12-19T09:57:32.557Z,100271.06
2022-12-19T10:00:15.088Z,100270.13
2022-12-19T10:02:58.002Z,100263.91
2022-12-19T10:06:00.422Z,100252.09
2022-12-19T10:10:05.542Z,100259.63
2022-12-19T10:12:45.864Z,100242.31
2022-12-19T10:14:59.959Z,100239.94
2022-12-19T10:18:01.413Z,100244.25
2022-12-19T10:20:33.961Z,100253.53
2022-12-19T10:23:20.353Z,100237.97
2022-12-19T10:25:54.326Z,100238.44
2022-12-19T10:28:20.596Z,100235.78
2022-12-19T10:31:20.994Z,100229.16
2022-12-19T10:33:48.380Z,100235.47
2022-12-19T10:36:15.458Z,100231.09
2022-12-19T10:39:00.904Z,100231.00
2022-12-19T10:41:32.263Z,100227.31
2022-12-19T10:44:08.116Z,100220.59
2022-12-19T10:46:41.976Z,100216.13
2022-12-19T10:49:16.965Z,100216.94
2022-12-19T10:51:55.763Z,100210.84
2022-12-19T10:54:37.268Z,100203.81
2022-12-19T10:57:22.738Z,100198.81
2022-12-19T11:00:03.858Z,100200.31
2022-12-19T11:02:45.414Z,100194.19
2022-12-19T11:05:25.773Z,100181.50
2022-12-19T11:08:06.769Z,100187.22
2022-12-19T11:13:08.485Z,100179.69
2022-12-19T11:19:13.542Z,100168.13
2022-12-19T11:21:50.590Z,100179.28
2022-12-19T11:29:19.253Z,100171.31
2022-12-19T11:29:26.987Z,100184.47
2022-12-19T11:30:40.970Z,100170.50
2022-12-19T11:30:41.453Z,100186.16
2022-12-19T11:34:18.335Z,100184.25
2022-12-19T11:36:47.694Z,100171.59
2022-12-19T11:39:45.288Z,100168.19
2022-12-19T11:42:37.347Z,100170.63
2022-12-19T11:45:30.839Z,100172.00
2022-12-19T11:48:15.568Z,100165.00
2022-12-19T11:51:01.938Z,100161.09
2022-12-19T11:54:07.331Z,100152.72
2022-12-19T11:56:33.811Z,100156.09
2022-12-19T11:59:07.412Z,100151.66
2022-12-19T12:01:40.406Z,100151.72
2022-12-19T12:04:45.201Z,100151.59
2022-12-19T12:07:41.554Z,100146.09
2022-12-19T12:13:13.662Z,100134.81
2022-12-19T12:23:19.575Z,100137.28
2022-12-19T12:27:55.214Z,100144.94
2022-12-19T12:31:00.704Z,100152.56
2022-12-19T12:31:10.656Z,100155.88
2022-12-19T12:31:48.511Z,100114.53
2022-12-19T12:31:56.211Z,100134.34
2022-12-19T12:35:48.614Z,100135.81
2022-12-19T12:38:18.788Z,100145.06
2022-12-19T12:40:48.509Z,100149.47
2022-12-19T12:44:00.553Z,100136.59
2022-12-19T12:46:35.007Z,100137.25
2022-12-19T12:49:15.333Z,100133.91
2022-12-19T12:51:41.955Z,100118.22
2022-12-19T12:54:14.012Z,100125.22
2022-12-19T12:56:42.053Z,100128.53
2022-12-19T12:59:24.171Z,100125.63
2022-12-19T13:01:53.390Z,100130.75
2022-12-19T13:04:24.359Z,100126.59
2022-12-19T13:06:50.633Z,100133.19
2022-12-19T13:09:20.027Z,100138.38
2022-12-19T13:12:36.609Z,100135.69
2022-12-19T13:15:29.699Z,100127.88
2022-12-19T13:17:55.987Z,100120.03
2022-12-19T13:20:25.251Z,100124.47
2022-12-19T13:23:19.582Z,100119.06
2022-12-19T13:25:49.529Z,100118.16
2022-12-19T13:28:37.854Z,100118.03
2022-12-19T13:31:19.337Z,100116.44
2022-12-19T13:33:51.533Z,100116.53
2022-12-19T13:39:49.007Z,100117.28
2022-12-19T13:40:10.965Z,100118.31
2022-12-19T13:43:11.345Z,100133.78
2022-12-19T13:45:40.977Z,100144.16
2022-12-19T13:48:15.555Z,100137.88
2022-12-19T13:50:43.386Z,100129.16
2022-12-19T13:53:16.261Z,100116.38
2022-12-19T13:55:42.575Z,100123.13
2022-12-19T13:58:28.816Z,100121.34
2022-12-19T14:01:01.105Z,100122.06
2022-12-19T14:03:41.015Z,100130.75
2022-12-19T14:06:20.411Z,100135.97
2022-12-19T14:09:41.469Z,100149.00
2022-12-19T14:13:39.767Z,100143.06
2022-12-19T14:14:49.344Z,100132.66
2022-12-19T14:17:35.623Z,100130.16
2022-12-19T14:22:01.896Z,100135.50
2022-12-19T14:23:04.364Z,100132.41
2022-12-19T14:28:14.360Z,100136.66
2022-12-19T14:28:40.324Z,100132.34
2022-12-19T14:31:14.587Z,100134.91
2022-12-19T14:34:18.410Z,100141.59
2022-12-19T14:36:39.934Z,100131.91
2022-12-19T14:39:24.998Z,100130.84
2022-12-19T14:42:19.154Z,100139.28
2022-12-19T14:52:25.565Z,100136.44
2022-12-19T14:52:26.128Z,100141.00
2022-12-19T14:54:04.065Z,100121.84
2022-12-19T14:54:35.861Z,100109.03
2022-12-19T14:59:00.576Z,100116.41
2022-12-19T15:01:33.028Z,100121.81
2022-12-19T15:04:52.057Z,100131.47
2022-12-19T15:07:07.807Z,100138.09
2022-12-19T15:11:09.160Z,100126.28
2022-12-19T15:14:54.529Z,100113.75
2022-12-19T15:16:26.651Z,100108.88
2022-12-19T15:18:57.063Z,100103.56
2022-12-19T15:21:23.930Z,100107.38
2022-12-19T15:23:50.341Z,100088.16
2022-12-19T15:26:19.911Z,100102.91
2022-12-19T15:28:50.070Z,100099.25
2022-12-19T15:31:40.485Z,100108.22
2022-12-19T15:36:57.665Z,100104.34
2022-12-19T15:39:25.898Z,100103.91
2022-12-19T15:41:53.812Z,100094.19
2022-12-19T15:44:26.153Z,100089.31
2022-12-19T15:46:52.569Z,100086.94
2022-12-19T15:49:21.328Z,100084.50
2022-12-19T15:51:48.460Z,100074.84
2022-12-19T15:54:47.862Z,100068.31
2022-12-19T15:57:01.459Z,100065.88
2022-12-19T15:59:41.477Z,100071.06
2022-12-19T16:02:18.672Z,100069.13
2022-12-19T16:04:47.500Z,100071.59
2022-12-19T16:07:16.257Z,100070.38
2022-12-19T16:09:42.619Z,100069.41
2022-12-19T16:12:14.240Z,100067.59
2022-12-19T16:14:40.772Z,100061.56
2022-12-19T16:17:13.148Z,100059.19
2022-12-19T16:19:39.534Z,100060.66
2022-12-19T16:22:17.750Z,100061.50
2022-12-19T16:24:44.105Z,100053.91
2022-12-19T16:27:19.136Z,100041.03
2022-12-19T16:29:46.076Z,100037.75
2022-12-19T16:32:13.626Z,100050.91
2022-12-19T16:34:39.929Z,100050.34
2022-12-19T16:37:06.438Z,100051.31
2022-12-19T16:39:32.811Z,100056.13
2022-12-19T16:41:59.320Z,100052.06
2022-12-19T16:44:25.703Z,100063.91
2022-12-19T16:46:52.362Z,100061.00
2022-12-19T16:49:24.621Z,100067.97
2022-12-19T16:51:51.774Z,100066.78
2022-12-19T16:54:19.869Z,100057.41
2022-12-19T16:56:49.587Z,100068.91
2022-12-19T16:59:22.547Z,100071.59
2022-12-19T17:01:49.555Z,100075.16
2022-12-19T17:04:19.370Z,100070.19
2022-12-19T17:06:46.099Z,100055.06
2022-12-19T17:09:18.158Z,100054.41
2022-12-19T17:11:48.189Z,100053.59
2022-12-19T17:14:26.917Z,100044.16
2022-12-19T17:16:55.368Z,100042.34
2022-12-19T17:19:25.852Z,100033.84
2022-12-19T17:21:52.237Z,100036.44
2022-12-19T17:24:18.923Z,100048.31
2022-12-19T17:26:47.143Z,100039.38
2022-12-19T17:29:14.057Z,100051.22
2022-12-19T17:31:41.683Z,100050.69
2022-12-19T17:34:25.964Z,100056.38
2022-12-19T17:36:52.276Z,100044.41
2022-12-19T17:39:21.763Z,100027.78
2022-12-19T17:41:52.396Z,100030.97
2022-12-19T17:44:18.995Z,100019.53
2022-12-19T17:46:47.243Z,100022.50
2022-12-19T17:49:21.402Z,100016.41
2022-12-19T17:51:52.099Z,100009.28
2022-12-19T17:54:19.915Z,100006.31
2022-12-19T17:56:46.253Z,100007.31
2022-12-19T17:59:12.656Z,99995.84
2022-12-19T18:01:41.633Z,99994.13
2022-12-19T18:04:16.675Z,100003.03
2022-12-19T18:06:43.018Z,100000.81
2022-12-19T18:09:19.610Z,100009.00
2022-12-19T18:11:47.269Z,100010.75
2022-12-19T18:14:14.279Z,100017.16
2022-12-19T18:16:41.216Z,100010.56
2022-12-19T18:19:17.158Z,100005.59
2022-12-19T18:21:43.477Z,100001.28
2022-12-19T18:24:11.933Z,100000.19
2022-12-19T18:26:38.534Z,99997.38
2022-12-19T18:29:04.880Z,100005.34
2022-12-19T18:31:31.303Z,99998.63
2022-12-19T18:34:07.015Z,99985.75
2022-12-19T18:36:40.514Z,99997.16
2022-12-19T18:39:19.508Z,100003.53
2022-12-19T18:41:45.879Z,100005.09
2022-12-19T18:44:12.239Z,100005.41
2022-12-19T18:46:38.805Z,100020.88
2022-12-19T18:49:06.367Z,99998.13
2022-12-19T18:51:32.938Z,100006.78
2022-12-19T18:53:59.946Z,100000.47
2022-12-19T18:56:26.264Z,100008.38
2022-12-19T18:58:52.562Z,100003.22
2022-12-19T19:01:21.428Z,100004.41
2022-12-19T19:03:53.005Z,100011.53
2022-12-19T19:06:23.050Z,100019.13
2022-12-19T19:08:51.420Z,100025.19
2022-12-19T19:11:42.288Z,100024.72
2022-12-19T19:14:09.083Z,100036.97
2022-12-19T19:16:36.339Z,100020.03
2022-12-19T19:19:06.793Z,100010.53
2022-12-19T19:21:34.743Z,99996.38
2022-12-19T19:24:10.513Z,99987.75
2022-12-19T19:26:36.977Z,99995.16
2022-12-19T19:29:03.463Z,99995.38
2022-12-19T19:31:34.263Z,100001.16
2022-12-19T19:34:25.625Z,100017.31
2022-12-19T19:36:55.781Z,100022.91
2022-12-19T19:39:22.728Z,100027.97
2022-12-19T19:41:49.128Z,100016.72
2022-12-19T19:44:15.517Z,100009.34
2022-12-19T19:46:41.845Z,100012.31
2022-12-19T19:49:08.247Z,100024.31
2022-12-19T19:51:34.559Z,100025.72
2022-12-19T19:54:00.866Z,100029.97
2022-12-19T19:56:27.195Z,100026.81
2022-12-19T19:58:55.137Z,100028.88
2022-12-19T20:01:21.556Z,100024.81
2022-12-19T20:03:49.273Z,100032.84
2022-12-19T20:06:16.256Z,100028.88
2022-12-19T20:08:42.559Z,100019.28
2022-12-19T20:11:10.418Z,100019.91
2022-12-19T20:13:37.586Z,100023.34
2022-12-19T20:16:06.720Z,100034.22
2022-12-19T20:18:33.862Z,100033.16
2022-12-19T20:21:00.274Z,100041.81
2022-12-19T20:23:26.916Z,100051.25
2022-12-19T20:25:53.411Z,100053.41
2022-12-19T20:28:19.984Z,100049.75
2022-12-19T20:30:47.143Z,100043.72
2022-12-19T20:33:13.559Z,100056.69
2022-12-19T20:35:39.990Z,100039.19
2022-12-19T20:38:06.402Z,100046.81
2022-12-19T20:40:32.682Z,100048.94
2022-12-19T20:42:59.228Z,100039.78
2022-12-19T20:45:25.556Z,100053.19
2022-12-19T20:47:51.865Z,100055.47
2022-12-19T20:50:18.188Z,100054.66
2022-12-19T20:52:44.702Z,100047.47
2022-12-19T20:55:11.128Z,100042.34
2022-12-19T20:57:37.456Z,100046.34
2022-12-19T21:00:06.004Z,100050.00
2022-12-19T21:02:52.566Z,100051.19
2022-12-19T21:05:20.383Z,100047.13
2022-12-19T21:07:46.784Z,100040.22
2022-12-19T21:10:13.150Z,100031.84
2022-12-19T21:12:43.822Z,100043.16
2022-12-19T21:15:13.885Z,100042.16
2022-12-19T21:17:40.184Z,100041.44
2022-12-19T21:20:07.230Z,100030.31
2022-12-19T21:22:33.569Z,100036.41
2022-12-19T21:24:59.876Z,100047.56
2022-12-19T21:27:26.246Z,100054.38
2022-12-19T21:29:52.589Z,100045.97
2022-12-19T21:32:19.421Z,100050.16
2022-12-19T21:34:45.804Z,100054.38
2022-12-19T21:37:12.126Z,100059.19
2022-12-19T21:39:38.463Z,100060.00
2022-12-19T21:42:04.986Z,100062.03
2022-12-19T21:44:31.288Z,100064.53
2022-12-19T21:46:57.798Z,100058.44
2022-12-19T21:49:24.184Z,100060.06
2022-12-19T21:51:50.554Z,100047.19
2022-12-19T21:54:16.857Z,100056.28
2022-12-19T21:56:45.478Z,100044.06
2022-12-19T21:59:14.436Z,100032.22
2022-12-19T22:01:42.272Z,100017.03
2022-12-19T22:04:15.310Z,100024.75
2022-12-19T22:06:41.829Z,100034.81
2022-12-19T22:09:12.004Z,100046.41
2022-12-19T22:11:38.632Z,100052.94
2022-12-19T22:14:05.727Z,100046.03
2022-12-19T22:16:33.233Z,100044.81
2022-12-19T22:18:59.764Z,100064.78
2022-12-19T22:21:26.598Z,100054.53
2022-12-19T22:23:56.648Z,100050.59
2022-12-19T22:26:24.569Z,100047.13
2022-12-19T22:28:53.307Z,100033.47
2022-12-19T22:31:23.714Z,100046.59
2022-12-19T22:33:52.401Z,100039.53
2022-12-19T22:36:27.325Z,100047.78
2022-12-19T22:38:54.640Z,100045.19
2022-12-19T22:41:21.044Z,100036.81
2022-12-19T22:43:47.769Z,100036.75
2022-12-19T22:46:19.576Z,100042.47
2022-12-19T22:48:46.826Z,100046.47
2022-12-19T22:51:14.846Z,100041.38
2022-12-19T22:53:42.014Z,100041.59
2022-12-19T22:56:13.190Z,100041.06
2022-12-19T22:58:40.390Z,100038.97
2022-12-19T23:01:12.975Z,100029.84
2022-12-19T23:03:39.716Z,100019.47
2022-12-19T23:06:06.278Z,100029.06
2022-12-19T23:08:32.601Z,100024.28
2022-12-19T23:10:58.917Z,100012.25
2022-12-19T23:13:25.563Z,100033.00
2022-12-19T23:15:52.069Z,100028.31
2022-12-19T23:18:18.383Z,100024.91
2022-12-19T23:20:44.716Z,100013.09
2022-12-19T23:23:11.003Z,100023.06
2022-12-19T23:25:39.090Z,100019.94
2022-12-19T23:28:06.594Z,100015.75
2022-12-19T23:30:33.014Z,100009.13
2022-12-19T23:33:00.690Z,100017.56
2022-12-19T23:35:27.921Z,100012.97
2022-12-19T23:37:54.195Z,100018.69
2022-12-19T23:40:20.502Z,100006.38
2022-12-19T23:42:46.815Z,100015.28
2022-12-19T23:45:13.163Z,100007.44
2022-12-19T23:47:40.103Z,100010.59
2022-12-19T23:50:07.157Z,100006.91
2022-12-19T23:52:33.826Z,100013.09
2022-12-19T23:55:00.111Z,100006.78
2022-12-19T23:57:26.436Z,100002.31
2022-12-19T23:59:52.730Z,99988.72
